Time;durP1;ratioP1;P1;durP2;ratioP2;P2;SDS_P1;SDS_P2;PMS_P1;PMS_P2;Temp;Humidity;BMP_temperature;BMP_pressure;BME280_temperature;BME280_humidity;BME280_pressure;Samples;Min_cycle;Max_cycle;Signal;HPM_P1;HPM_P2
2023/06/30 00:05:39;;;;;;;16.92;9.85;;;;;;;24.21;100.00;100900.78;20983868;28;20044;-79
2023/06/30 00:16:04;;;;;;;22.55;10.68;;;;;;;24.15;100.00;100914.47;20986899;28;20487;-80
2023/06/30 00:26:28;;;;;;;19.90;9.43;;;;;;;24.18;100.00;100925.16;20995341;28;20048;-79
2023/06/30 00:36:51;;;;;;;17.80;8.93;;;;;;;24.17;100.00;100923.38;20956957;28;20067;-79
2023/06/30 00:47:16;;;;;;;14.70;8.45;;;;;;;24.15;100.00;100909.09;20988345;28;20048;-79
2023/06/30 00:57:39;;;;;;;17.58;9.45;;;;;;;24.14;100.00;100912.72;20996707;28;20138;-78
2023/06/30 01:08:14;;;;;;;18.67;8.63;;;;;;;24.06;100.00;100905.84;20976817;28;20053;-79
2023/06/30 01:18:41;;;;;;;18.27;8.70;;;;;;;24.00;100.00;100912.34;20985979;28;20067;-79
2023/06/30 01:29:07;;;;;;;19.98;9.40;;;;;;;23.79;100.00;100900.53;20987641;28;20036;-79
2023/06/30 01:39:30;;;;;;;16.38;9.23;;;;;;;23.61;100.00;100900.34;20972366;28;20045;-79
2023/06/30 01:49:55;;;;;;;14.60;8.50;;;;;;;23.55;100.00;100887.97;20963151;28;20556;-78
2023/06/30 02:00:19;;;;;;;18.13;9.85;;;;;;;23.38;100.00;100901.97;20931092;28;20044;-79
2023/06/30 02:10:45;;;;;;;19.15;9.48;;;;;;;23.28;100.00;100900.56;20974738;28;20043;-78
2023/06/30 02:21:07;;;;;;;14.48;9.18;;;;;;;23.25;100.00;100899.75;20958757;28;20055;-79
2023/06/30 02:31:32;;;;;;;17.30;9.32;;;;;;;22.98;100.00;100904.25;20969828;28;20048;-79
2023/06/30 02:41:54;;;;;;;15.82;8.85;;;;;;;23.15;100.00;100898.31;20976985;28;20110;-78
2023/06/30 02:52:19;;;;;;;17.45;9.38;;;;;;;22.84;100.00;100914.63;20964652;28;20733;-79
2023/06/30 03:02:41;;;;;;;19.50;9.45;;;;;;;22.83;100.00;100911.06;20977779;28;20049;-78
2023/06/30 03:13:07;;;;;;;18.52;9.82;;;;;;;22.78;100.00;100918.38;20944192;28;20059;-78
2023/06/30 03:23:29;;;;;;;14.75;8.63;;;;;;;22.67;100.00;100918.69;20965796;28;20602;-79
2023/06/30 03:33:54;;;;;;;13.70;8.98;;;;;;;22.62;100.00;100914.41;20987737;28;20119;-79
2023/06/30 03:44:18;;;;;;;15.57;10.32;;;;;;;22.76;100.00;100927.44;20992246;28;20052;-79
2023/06/30 03:54:43;;;;;;;17.40;9.63;;;;;;;23.07;100.00;100933.59;20989063;28;20068;-79
2023/06/30 04:05:06;;;;;;;16.13;8.20;;;;;;;23.24;100.00;100946.47;20994561;28;20048;-78
2023/06/30 04:15:30;;;;;;;16.08;8.38;;;;;;;23.69;100.00;100955.75;20955583;28;20155;-78
2023/06/30 04:25:53;;;;;;;15.85;7.57;;;;;;;23.97;100.00;100955.59;20993202;28;20396;-76
2023/06/30 04:36:20;;;;;;;13.40;6.88;;;;;;;24.40;100.00;100960.34;20978999;28;20053;-77
2023/06/30 04:46:42;;;;;;;13.45;6.15;;;;;;;24.92;100.00;100955.59;20987998;28;20064;-77
2023/06/30 04:57:06;;;;;;;16.80;6.43;;;;;;;25.41;100.00;100962.53;20988311;28;20052;-77
2023/06/30 05:07:29;;;;;;;13.20;6.32;;;;;;;25.55;100.00;100975.47;20972904;28;20068;-78
2023/06/30 05:17:53;;;;;;;15.27;5.70;;;;;;;25.96;100.00;100976.41;20954547;28;20052;-77
2023/06/30 05:28:16;;;;;;;9.75;5.07;;;;;;;26.66;100.00;100976.78;20965431;28;20061;-76
2023/06/30 05:38:40;;;;;;;10.27;5.40;;;;;;;27.27;100.00;100976.53;20961350;28;20072;-78
2023/06/30 05:49:05;;;;;;;10.23;4.90;;;;;;;27.83;100.00;100973.66;20956447;28;20504;-78
2023/06/30 05:59:31;;;;;;;11.90;4.93;;;;;;;28.35;100.00;100973.63;20964721;28;20044;-78
2023/06/30 06:09:53;;;;;;;9.38;4.47;;;;;;;29.18;100.00;100977.03;20952932;28;20413;-78
2023/06/30 06:20:17;;;;;;;15.77;5.07;;;;;;;29.69;100.00;100975.81;20965312;28;20052;-79
2023/06/30 06:30:40;;;;;;;11.18;4.68;;;;;;;29.34;100.00;100979.78;20947144;28;20571;-77
2023/06/30 06:41:04;;;;;;;9.43;5.05;;;;;;;30.24;100.00;100975.19;20968130;28;20680;-77
2023/06/30 06:51:27;;;;;;;9.57;5.32;;;;;;;31.14;100.00;100993.94;20946790;28;20047;-77
2023/06/30 07:01:52;;;;;;;10.00;5.03;;;;;;;31.68;100.00;100986.66;20957774;28;20053;-79
2023/06/30 07:12:14;;;;;;;8.88;4.93;;;;;;;31.73;100.00;100994.50;20979431;28;20057;-76
2023/06/30 07:22:38;;;;;;;7.60;4.60;;;;;;;32.37;95.53;101005.44;20939267;28;20149;-77
2023/06/30 07:33:01;;;;;;;7.90;4.40;;;;;;;32.70;78.87;100995.81;20965725;28;20405;-77
2023/06/30 07:43:25;;;;;;;8.80;3.95;;;;;;;32.91;73.88;100993.38;20945450;28;20040;-77
2023/06/30 07:53:48;;;;;;;6.30;3.58;;;;;;;33.52;71.75;101006.97;20969776;28;20463;-78
2023/06/30 08:04:12;;;;;;;9.02;4.13;;;;;;;33.26;64.79;101015.41;20970204;28;20306;-76
2023/06/30 08:14:35;;;;;;;9.57;3.83;;;;;;;33.59;66.33;101012.84;21002410;28;20496;-77
2023/06/30 08:24:59;;;;;;;13.43;4.18;;;;;;;33.99;58.11;101017.03;20982701;28;20400;-78
2023/06/30 08:35:22;;;;;;;7.95;4.20;;;;;;;34.06;56.01;101005.59;20990505;28;20523;-77
2023/06/30 08:45:49;;;;;;;6.10;3.40;;;;;;;34.35;52.60;100987.72;21000568;28;20049;-78
2023/06/30 08:56:15;;;;;;;14.10;4.38;;;;;;;34.53;50.64;100990.84;20990172;28;20408;-77
2023/06/30 09:06:20;;;;;;;8.73;3.80;;;;;;;34.43;46.98;100995.31;20978240;28;20504;-78
2023/06/30 09:16:42;;;;;;;6.30;3.67;;;;;;;34.94;45.78;100973.75;20945205;28;20044;-78
2023/06/30 09:27:08;;;;;;;6.22;3.50;;;;;;;35.16;42.97;100981.94;20924212;28;20060;-76
2023/06/30 09:37:30;;;;;;;;;;;;;;;35.37;41.42;100971.94;20941717;28;20044;-76
2023/06/30 09:47:55;;;;;;;8.00;3.70;;;;;;;35.67;41.26;100992.28;20982367;28;19928;-76
2023/06/30 09:58:19;;;;;;;5.68;3.63;;;;;;;35.90;39.87;100978.34;20972989;28;20056;-78
2023/06/30 10:08:44;;;;;;;7.40;3.28;;;;;;;35.84;39.42;100967.84;20934171;28;20215;-77
2023/06/30 10:19:08;;;;;;;11.07;3.60;;;;;;;35.43;43.95;100963.19;20924027;28;20572;-78
2023/06/30 10:29:32;;;;;;;6.32;3.35;;;;;;;35.28;43.55;100969.09;20940858;28;20201;-77
2023/06/30 10:39:55;;;;;;;8.53;3.20;;;;;;;35.28;42.40;100978.19;20937808;28;20052;-79
2023/06/30 10:50:20;;;;;;;7.88;2.88;;;;;;;35.46;45.13;100968.38;20945314;28;20530;-77
2023/06/30 11:01:03;;;;;;;6.47;2.72;;;;;;;35.95;44.06;100967.81;20939639;28;20190;-76
2023/06/30 11:11:28;;;;;;;8.63;2.40;;;;;;;36.48;43.99;100961.34;20929618;28;20040;-77
2023/06/30 11:22:25;;;;;;;7.00;2.05;;;;;;;36.64;42.06;100965.34;20901098;28;20057;-77
2023/06/30 11:32:49;;;;;;;6.30;2.30;;;;;;;36.04;44.09;100963.38;20916340;28;20052;-80
2023/06/30 11:43:12;;;;;;;7.70;2.55;;;;;;;35.19;44.41;100959.72;20936182;28;20044;-79
2023/06/30 11:53:37;;;;;;;4.28;2.50;;;;;;;34.94;44.87;100958.16;20977368;28;20036;-79
2023/06/30 12:04:00;;;;;;;5.80;1.98;;;;;;;34.66;43.76;100947.69;20942458;28;20045;-79
2023/06/30 12:14:26;;;;;;;6.00;2.40;;;;;;;34.60;45.17;100940.81;20948434;28;20262;-79
2023/06/30 12:24:55;;;;;;;5.00;2.60;;;;;;;34.83;44.82;100925.25;20960738;28;20512;-79
2023/06/30 12:35:29;;;;;;;5.20;2.83;;;;;;;34.94;44.33;100914.25;20970373;28;20049;-79
2023/06/30 12:45:52;;;;;;;5.88;3.13;;;;;;;34.75;45.85;100900.31;20982171;28;20544;-78
2023/06/30 12:56:17;;;;;;;9.55;3.47;;;;;;;34.83;46.82;100880.47;21002139;28;20427;-79
2023/06/30 13:06:41;;;;;;;8.45;2.70;;;;;;;34.86;45.81;100892.03;20979081;28;20037;-79
2023/06/30 13:17:07;;;;;;;7.30;3.40;;;;;;;35.08;45.86;100878.25;20960013;28;20056;-80
2023/06/30 13:27:29;;;;;;;5.32;2.90;;;;;;;35.12;42.57;100868.75;20985249;28;20047;-81
2023/06/30 13:37:54;;;;;;;8.60;3.58;;;;;;;34.97;42.89;100866.47;20996866;28;20118;-81
2023/06/30 13:48:17;;;;;;;6.57;3.80;;;;;;;34.77;43.83;100873.63;20992210;28;20044;-80
2023/06/30 13:58:42;;;;;;;7.80;3.78;;;;;;;34.60;45.85;100868.63;20938425;28;20052;-80
2023/06/30 14:09:05;;;;;;;7.40;3.50;;;;;;;34.52;46.07;100858.31;20955002;28;20132;-80
2023/06/30 14:19:29;;;;;;;7.85;3.70;;;;;;;34.38;48.94;100853.09;20956770;28;20044;-82
2023/06/30 14:29:53;;;;;;;6.05;3.50;;;;;;;34.43;50.03;100848.09;20955196;28;20080;-82
2023/06/30 14:40:18;;;;;;;6.45;3.28;;;;;;;34.21;47.94;100842.59;20953886;28;20094;-83
2023/06/30 14:50:41;;;;;;;5.03;2.80;;;;;;;34.16;46.19;100823.78;20957037;28;20512;-82
2023/06/30 15:01:05;;;;;;;4.07;2.22;;;;;;;33.45;44.29;100819.47;20970959;28;20051;-82
2023/06/30 15:11:28;;;;;;;8.43;2.45;;;;;;;33.15;43.05;100803.53;20938410;28;20048;-82
2023/06/30 15:21:52;;;;;;;4.75;2.05;;;;;;;32.32;44.59;100793.53;20975093;28;20063;-82
2023/06/30 15:32:15;;;;;;;4.28;2.00;;;;;;;31.82;46.21;100783.59;20991804;28;20053;-80
2023/06/30 15:42:39;;;;;;;4.80;2.05;;;;;;;31.08;47.56;100789.75;20975319;28;20083;-80
2023/06/30 15:53:02;;;;;;;6.30;2.28;;;;;;;29.09;75.81;100786.31;21005237;28;20090;-79
2023/06/30 16:03:26;;;;;;;7.75;2.80;;;;;;;28.64;86.52;100792.66;20979031;28;20060;-76
2023/06/30 16:13:48;;;;;;;5.85;2.47;;;;;;;28.30;87.60;100788.28;20961890;28;20060;-76
2023/06/30 16:24:12;;;;;;;5.43;2.47;;;;;;;28.09;88.09;100787.66;21018578;28;20075;-75
2023/06/30 16:34:35;;;;;;;6.95;2.65;;;;;;;27.93;85.98;100784.94;21017748;28;20059;-74
2023/06/30 16:45:01;;;;;;;6.00;2.47;;;;;;;27.61;93.43;100775.84;21061814;28;20052;-74
2023/06/30 16:55:23;;;;;;;8.52;2.60;;;;;;;27.45;99.63;100787.56;21019095;28;20389;-74
2023/06/30 17:05:47;;;;;;;11.82;2.88;;;;;;;27.26;100.00;100784.97;20987354;28;20117;-74
2023/06/30 17:16:10;;;;;;;9.10;2.67;;;;;;;27.13;100.00;100790.16;21000670;28;20569;-75
2023/06/30 17:26:14;;;;;;;6.28;2.50;;;;;;;26.83;100.00;100798.03;21009030;28;20102;-74
2023/06/30 17:36:37;;;;;;;6.63;2.78;;;;;;;26.45;100.00;100786.41;20980397;28;20076;-74
2023/06/30 17:47:01;;;;;;;6.28;3.05;;;;;;;26.27;100.00;100798.13;21012342;28;20055;-75
2023/06/30 17:57:04;;;;;;;7.55;3.20;;;;;;;26.05;100.00;100798.28;21009295;28;20041;-74
2023/06/30 18:07:28;;;;;;;9.57;4.80;;;;;;;25.97;100.00;100815.81;21003826;28;20063;-74
2023/06/30 18:17:52;;;;;;;11.82;6.07;;;;;;;25.68;100.00;100809.94;20985518;28;20049;-74
2023/06/30 18:28:16;;;;;;;13.07;4.20;;;;;;;25.73;100.00;100820.56;21014828;28;20143;-74
2023/06/30 18:38:39;;;;;;;8.18;4.00;;;;;;;25.65;100.00;100823.63;21024461;28;20052;-74
2023/06/30 18:49:05;;;;;;;9.45;4.00;;;;;;;25.56;100.00;100821.28;20986939;28;20086;-74
2023/06/30 18:59:28;;;;;;;7.53;4.28;;;;;;;25.38;100.00;100825.69;20936820;28;20056;-74
2023/06/30 19:09:52;;;;;;;10.23;5.18;;;;;;;25.14;100.00;100815.09;21016259;28;20052;-74
2023/06/30 19:20:14;;;;;;;11.23;4.80;;;;;;;25.06;100.00;100825.34;21036656;28;20052;-74
2023/06/30 19:30:39;;;;;;;8.57;4.80;;;;;;;24.92;100.00;100821.41;21016061;28;20052;-75
2023/06/30 19:41:02;;;;;;;6.03;3.60;;;;;;;24.82;100.00;100825.41;20989158;28;20047;-75
2023/06/30 19:51:26;;;;;;;6.25;3.83;;;;;;;24.70;100.00;100834.03;21027102;28;20044;-74
2023/06/30 20:01:48;;;;;;;9.15;3.88;;;;;;;24.73;100.00;100827.63;20992404;28;20056;-74
2023/06/30 20:12:12;;;;;;;8.68;3.83;;;;;;;24.68;100.00;100826.94;21049092;28;20067;-74
2023/06/30 20:22:35;;;;;;;7.13;3.45;;;;;;;24.58;100.00;100829.13;21026863;28;20105;-74
2023/06/30 20:32:59;;;;;;;7.60;4.20;;;;;;;24.47;100.00;100816.09;21015514;28;20496;-74
2023/06/30 20:43:22;;;;;;;12.07;4.40;;;;;;;24.33;100.00;100812.19;20952439;28;20094;-74
2023/06/30 20:53:46;;;;;;;8.85;4.18;;;;;;;24.25;100.00;100817.88;20969506;28;20093;-75
2023/06/30 21:04:09;;;;;;;6.35;3.83;;;;;;;24.10;100.00;100804.97;20973304;28;20052;-75
2023/06/30 21:14:34;;;;;;;9.05;4.03;;;;;;;24.02;100.00;100796.31;20996236;28;20400;-74
2023/06/30 21:24:37;;;;;;;8.88;3.58;;;;;;;23.97;100.00;100785.69;20973416;28;20067;-75
2023/06/30 21:35:01;;;;;;;5.93;4.20;;;;;;;23.75;100.00;100784.78;20965290;28;20160;-75
2023/06/30 21:45:24;;;;;;;9.10;3.70;;;;;;;23.51;100.00;100783.00;21003540;28;20044;-75
2023/06/30 21:55:48;;;;;;;6.82;3.67;;;;;;;23.39;100.00;100766.31;21003197;28;20049;-75
2023/06/30 22:06:11;;;;;;;9.35;3.65;;;;;;;23.25;100.00;100749.78;21039716;28;20048;-75
2023/06/30 22:16:36;;;;;;;7.53;3.63;;;;;;;23.11;100.00;100764.66;21035598;28;20048;-75
2023/06/30 22:26:59;;;;;;;7.25;3.70;;;;;;;22.84;100.00;100753.09;20955137;28;20097;-75
2023/06/30 22:37:24;;;;;;;6.05;3.25;;;;;;;22.96;100.00;100753.53;21007375;28;20064;-75
2023/06/30 22:47:50;;;;;;;7.27;4.17;;;;;;;22.81;100.00;100753.19;20988187;28;20553;-75
2023/06/30 22:58:14;;;;;;;5.15;3.50;;;;;;;22.65;100.00;100756.38;20996135;28;20039;-74
2023/06/30 23:08:37;;;;;;;5.78;3.80;;;;;;;22.65;100.00;100744.72;20967922;28;20056;-74
2023/06/30 23:19:01;;;;;;;6.22;3.63;;;;;;;22.57;100.00;100736.06;20963723;28;20171;-74
2023/06/30 23:29:28;;;;;;;4.82;3.03;;;;;;;22.45;100.00;100723.00;20982061;28;20110;-75
2023/06/30 23:39:53;;;;;;;7.10;3.88;;;;;;;22.48;100.00;100720.22;20961009;28;20467;-74
2023/06/30 23:50:16;;;;;;;5.47;3.25;;;;;;;22.29;100.00;100719.06;21015493;28;20522;-75
